sensor_id;sensor_type;location;lat;lon;timestamp;pressure;altitude;pressure_sealevel;temperature;humidity
26563;BME280;14217;50.986;5.826;2024-03-23T00:53:45;100464.97;;;20.24;44.71
26563;BME280;14217;50.986;5.826;2024-03-23T00:58:46;100451.66;;;20.24;44.50
26563;BME280;14217;50.986;5.826;2024-03-23T01:03:47;100448.81;;;20.27;44.63
26563;BME280;14217;50.986;5.826;2024-03-23T01:08:48;100446.34;;;20.24;44.84
26563;BME280;14217;50.986;5.826;2024-03-23T01:13:49;100449.94;;;20.23;44.80
26563;BME280;14217;50.986;5.826;2024-03-23T01:18:49;100450.13;;;20.20;44.91
26563;BME280;14217;50.986;5.826;2024-03-23T01:23:50;100450.69;;;20.25;44.46
26563;BME280;14217;50.986;5.826;2024-03-23T01:28:51;100448.16;;;20.24;44.83
26563;BME280;14217;50.986;5.826;2024-03-23T01:33:51;100426.88;;;20.24;44.65
26563;BME280;14217;50.986;5.826;2024-03-23T01:38:52;100422.47;;;20.23;44.44
26563;BME280;14217;50.986;5.826;2024-03-23T01:43:54;100426.75;;;20.25;44.74
26563;BME280;14217;50.986;5.826;2024-03-23T01:48:55;100421.34;;;20.27;44.35
26563;BME280;14217;50.986;5.826;2024-03-23T01:53:56;100422.56;;;20.21;44.73
26563;BME280;14217;50.986;5.826;2024-03-23T01:58:57;100427.88;;;20.21;44.58
26563;BME280;14217;50.986;5.826;2024-03-23T02:03:58;100419.72;;;20.24;44.59
26563;BME280;14217;50.986;5.826;2024-03-23T02:08:59;100400.25;;;20.24;44.73
26563;BME280;14217;50.986;5.826;2024-03-23T02:14:00;100372.91;;;20.22;44.44
26563;BME280;14217;50.986;5.826;2024-03-23T02:19:01;100406.50;;;20.23;44.84
26563;BME280;14217;50.986;5.826;2024-03-23T02:24:01;100412.88;;;20.20;44.50
26563;BME280;14217;50.986;5.826;2024-03-23T02:29:02;100412.78;;;20.22;44.55
26563;BME280;14217;50.986;5.826;2024-03-23T02:34:03;100385.31;;;20.21;44.69
26563;BME280;14217;50.986;5.826;2024-03-23T02:39:04;100389.78;;;20.21;44.49
26563;BME280;14217;50.986;5.826;2024-03-23T02:44:05;100380.88;;;20.22;44.43
26563;BME280;14217;50.986;5.826;2024-03-23T02:49:07;100386.84;;;20.25;44.71
26563;BME280;14217;50.986;5.826;2024-03-23T02:54:07;100386.19;;;20.22;44.63
26563;BME280;14217;50.986;5.826;2024-03-23T02:59:08;100385.44;;;20.20;44.40
26563;BME280;14217;50.986;5.826;2024-03-23T03:04:09;100395.19;;;20.19;44.50
26563;BME280;14217;50.986;5.826;2024-03-23T03:09:10;100400.50;;;20.19;44.68
26563;BME280;14217;50.986;5.826;2024-03-23T03:14:10;100418.28;;;20.19;44.58
26563;BME280;14217;50.986;5.826;2024-03-23T03:19:11;100411.25;;;20.18;44.69
26563;BME280;14217;50.986;5.826;2024-03-23T03:24:12;100404.81;;;20.22;44.36
26563;BME280;14217;50.986;5.826;2024-03-23T03:29:13;100420.78;;;20.22;44.69
26563;BME280;14217;50.986;5.826;2024-03-23T03:34:13;100425.31;;;20.20;44.62
26563;BME280;14217;50.986;5.826;2024-03-23T03:39:14;100425.56;;;20.15;44.66
26563;BME280;14217;50.986;5.826;2024-03-23T03:44:15;100422.81;;;20.17;44.74
26563;BME280;14217;50.986;5.826;2024-03-23T03:49:16;100413.16;;;20.16;44.56
26563;BME280;14217;50.986;5.826;2024-03-23T03:54:16;100411.16;;;20.19;44.61
26563;BME280;14217;50.986;5.826;2024-03-23T03:59:17;100403.44;;;20.15;44.47
26563;BME280;14217;50.986;5.826;2024-03-23T04:04:17;100408.69;;;20.16;44.26
26563;BME280;14217;50.986;5.826;2024-03-23T04:09:18;100403.44;;;20.15;44.40
26563;BME280;14217;50.986;5.826;2024-03-23T04:14:19;100406.88;;;20.17;44.42
26563;BME280;14217;50.986;5.826;2024-03-23T04:19:19;100405.16;;;20.16;44.34
26563;BME280;14217;50.986;5.826;2024-03-23T04:24:20;100401.56;;;20.17;44.50
26563;BME280;14217;50.986;5.826;2024-03-23T04:29:23;100400.00;;;20.13;44.25
26563;BME280;14217;50.986;5.826;2024-03-23T04:34:23;100407.06;;;20.14;44.30
26563;BME280;14217;50.986;5.826;2024-03-23T04:39:24;100394.69;;;20.13;44.41
26563;BME280;14217;50.986;5.826;2024-03-23T04:44:25;100398.88;;;20.17;44.06
26563;BME280;14217;50.986;5.826;2024-03-23T04:49:26;100388.34;;;20.15;44.38
26563;BME280;14217;50.986;5.826;2024-03-23T04:54:26;100393.00;;;20.12;44.37
26563;BME280;14217;50.986;5.826;2024-03-23T04:59:29;100401.75;;;20.14;44.00
26563;BME280;14217;50.986;5.826;2024-03-23T05:04:30;100399.31;;;20.09;44.17
26563;BME280;14217;50.986;5.826;2024-03-23T05:09:32;100407.22;;;20.10;43.99
26563;BME280;14217;50.986;5.826;2024-03-23T05:14:33;100422.25;;;20.12;44.11
26563;BME280;14217;50.986;5.826;2024-03-23T05:19:34;100415.97;;;20.13;43.90
26563;BME280;14217;50.986;5.826;2024-03-23T05:24:35;100408.97;;;20.12;44.00
26563;BME280;14217;50.986;5.826;2024-03-23T05:29:36;100405.69;;;20.06;43.99
26563;BME280;14217;50.986;5.826;2024-03-23T05:34:37;100411.00;;;20.06;43.90
26563;BME280;14217;50.986;5.826;2024-03-23T05:39:38;100401.81;;;20.12;43.95
26563;BME280;14217;50.986;5.826;2024-03-23T05:44:39;100404.41;;;20.14;43.86
26563;BME280;14217;50.986;5.826;2024-03-23T05:49:40;100401.22;;;20.07;43.91
26563;BME280;14217;50.986;5.826;2024-03-23T05:54:42;100412.53;;;20.10;43.89
26563;BME280;14217;50.986;5.826;2024-03-23T05:59:44;100412.53;;;20.10;43.94
26563;BME280;14217;50.986;5.826;2024-03-23T06:04:45;100411.97;;;20.05;44.07
26563;BME280;14217;50.986;5.826;2024-03-23T06:09:46;100419.84;;;20.07;44.00
26563;BME280;14217;50.986;5.826;2024-03-23T06:14:47;100436.47;;;20.10;43.84
26563;BME280;14217;50.986;5.826;2024-03-23T06:19:50;100438.44;;;20.07;43.63
26563;BME280;14217;50.986;5.826;2024-03-23T06:24:51;100451.75;;;20.07;43.80
26563;BME280;14217;50.986;5.826;2024-03-23T06:29:51;100499.53;;;20.08;43.60
26563;BME280;14217;50.986;5.826;2024-03-23T06:34:52;100513.69;;;20.09;43.88
26563;BME280;14217;50.986;5.826;2024-03-23T06:39:53;100451.84;;;20.05;43.67
26563;BME280;14217;50.986;5.826;2024-03-23T06:44:54;100437.59;;;20.06;43.49
26563;BME280;14217;50.986;5.826;2024-03-23T06:49:54;100439.50;;;20.04;43.72
26563;BME280;14217;50.986;5.826;2024-03-23T06:54:55;100433.31;;;20.04;43.85
26563;BME280;14217;50.986;5.826;2024-03-23T06:59:56;100432.28;;;20.06;43.74
26563;BME280;14217;50.986;5.826;2024-03-23T07:04:57;100443.09;;;20.03;43.63
26563;BME280;14217;50.986;5.826;2024-03-23T07:09:57;100445.84;;;20.02;43.63
26563;BME280;14217;50.986;5.826;2024-03-23T07:14:58;100445.00;;;20.01;43.55
26563;BME280;14217;50.986;5.826;2024-03-23T07:19:59;100436.25;;;19.99;43.50
26563;BME280;14217;50.986;5.826;2024-03-23T07:25:02;100431.63;;;20.03;43.54
26563;BME280;14217;50.986;5.826;2024-03-23T07:30:04;100438.72;;;20.02;43.40
26563;BME280;14217;50.986;5.826;2024-03-23T07:35:05;100440.44;;;20.03;43.71
26563;BME280;14217;50.986;5.826;2024-03-23T07:40:06;100433.31;;;20.04;43.66
26563;BME280;14217;50.986;5.826;2024-03-23T07:45:07;100436.16;;;20.01;43.71
26563;BME280;14217;50.986;5.826;2024-03-23T07:50:10;100437.03;;;20.01;43.56
26563;BME280;14217;50.986;5.826;2024-03-23T07:55:10;100434.28;;;20.03;43.55
26563;BME280;14217;50.986;5.826;2024-03-23T08:00:12;100436.81;;;20.04;43.49
26563;BME280;14217;50.986;5.826;2024-03-23T08:05:13;100447.47;;;20.04;43.21
26563;BME280;14217;50.986;5.826;2024-03-23T08:10:14;100440.25;;;20.06;43.51
26563;BME280;14217;50.986;5.826;2024-03-23T08:15:18;100450.31;;;20.01;43.28
26563;BME280;14217;50.986;5.826;2024-03-23T08:20:19;100454.59;;;20.04;43.26
26563;BME280;14217;50.986;5.826;2024-03-23T08:25:20;100459.06;;;20.03;43.44
26563;BME280;14217;50.986;5.826;2024-03-23T08:30:21;100460.09;;;20.01;43.81
26563;BME280;14217;50.986;5.826;2024-03-23T08:35:22;100456.63;;;20.15;43.33
26563;BME280;14217;50.986;5.826;2024-03-23T08:40:22;100462.38;;;20.23;42.75
26563;BME280;14217;50.986;5.826;2024-03-23T08:45:25;100457.41;;;20.33;42.85
26563;BME280;14217;50.986;5.826;2024-03-23T08:50:26;100451.03;;;20.35;42.49
26563;BME280;14217;50.986;5.826;2024-03-23T08:55:26;100455.75;;;20.30;42.70
26563;BME280;14217;50.986;5.826;2024-03-23T09:00:27;100455.72;;;20.16;42.90
26563;BME280;14217;50.986;5.826;2024-03-23T09:05:28;100456.41;;;20.03;43.35
26563;BME280;14217;50.986;5.826;2024-03-23T09:10:31;100449.19;;;20.05;43.40
26563;BME280;14217;50.986;5.826;2024-03-23T09:15:36;100438.44;;;20.23;42.95
26563;BME280;14217;50.986;5.826;2024-03-23T09:20:37;100440.75;;;20.29;42.91
26563;BME280;14217;50.986;5.826;2024-03-23T09:25:38;100420.34;;;20.14;42.87
26563;BME280;14217;50.986;5.826;2024-03-23T09:30:39;100436.59;;;19.93;43.66
26563;BME280;14217;50.986;5.826;2024-03-23T09:35:43;100437.63;;;19.90;43.67
26563;BME280;14217;50.986;5.826;2024-03-23T09:40:49;100443.09;;;19.87;43.83
26563;BME280;14217;50.986;5.826;2024-03-23T09:45:53;100440.56;;;19.86;43.70
26563;BME280;14217;50.986;5.826;2024-03-23T09:50:54;100434.47;;;19.84;43.64
26563;BME280;14217;50.986;5.826;2024-03-23T09:55:55;100436.09;;;19.70;43.82
26563;BME280;14217;50.986;5.826;2024-03-23T10:00:55;100435.53;;;19.64;43.86
26563;BME280;14217;50.986;5.826;2024-03-23T10:06:03;100437.34;;;19.63;44.05
26563;BME280;14217;50.986;5.826;2024-03-23T10:11:14;100443.22;;;19.86;43.28
26563;BME280;14217;50.986;5.826;2024-03-23T10:16:23;100430.25;;;20.26;42.61
26563;BME280;14217;50.986;5.826;2024-03-23T10:21:24;100428.78;;;20.36;41.98
26563;BME280;14217;50.986;5.826;2024-03-23T10:26:25;100431.63;;;20.33;42.12
26563;BME280;14217;50.986;5.826;2024-03-23T10:31:30;100441.06;;;20.39;42.11
26563;BME280;14217;50.986;5.826;2024-03-23T10:36:32;100433.63;;;20.29;42.24
26563;BME280;14217;50.986;5.826;2024-03-23T10:41:35;100424.69;;;20.30;41.73
26563;BME280;14217;50.986;5.826;2024-03-23T10:46:36;100432.31;;;20.37;41.92
26563;BME280;14217;50.986;5.826;2024-03-23T10:51:37;100415.06;;;20.28;41.95
26563;BME280;14217;50.986;5.826;2024-03-23T10:56:39;100419.09;;;20.35;41.62
26563;BME280;14217;50.986;5.826;2024-03-23T11:01:56;100430.94;;;20.29;41.82
26563;BME280;14217;50.986;5.826;2024-03-23T11:06:57;100405.81;;;20.35;41.71
26563;BME280;14217;50.986;5.826;2024-03-23T11:12:34;100407.59;;;20.35;41.42
26563;BME280;14217;50.986;5.826;2024-03-23T11:17:35;100452.31;;;20.28;41.53
26563;BME280;14217;50.986;5.826;2024-03-23T11:22:45;100490.03;;;20.20;41.25
26563;BME280;14217;50.986;5.826;2024-03-23T11:27:56;100514.66;;;20.24;40.90
26563;BME280;14217;50.986;5.826;2024-03-23T11:32:58;100496.59;;;20.29;40.74
26563;BME280;14217;50.986;5.826;2024-03-23T11:43:19;100460.69;;;20.06;41.20
26563;BME280;14217;50.986;5.826;2024-03-23T11:48:21;100456.97;;;20.08;41.50
26563;BME280;14217;50.986;5.826;2024-03-23T11:53:23;100451.50;;;20.12;41.43
26563;BME280;14217;50.986;5.826;2024-03-23T11:58:25;100461.09;;;20.14;41.23
26563;BME280;14217;50.986;5.826;2024-03-23T12:03:27;100442.91;;;20.06;41.33
26563;BME280;14217;50.986;5.826;2024-03-23T12:08:30;100411.63;;;20.12;41.13
26563;BME280;14217;50.986;5.826;2024-03-23T12:13:31;100418.56;;;20.14;41.26
26563;BME280;14217;50.986;5.826;2024-03-23T12:18:32;100423.03;;;20.14;41.46
26563;BME280;14217;50.986;5.826;2024-03-23T12:23:33;100423.03;;;20.14;41.15
26563;BME280;14217;50.986;5.826;2024-03-23T12:28:34;100439.34;;;20.07;41.22
26563;BME280;14217;50.986;5.826;2024-03-23T12:33:35;100440.25;;;20.06;41.43
26563;BME280;14217;50.986;5.826;2024-03-23T12:38:36;100433.50;;;20.01;41.49
26563;BME280;14217;50.986;5.826;2024-03-23T12:43:36;100459.91;;;20.04;41.22
26563;BME280;14217;50.986;5.826;2024-03-23T12:48:38;100403.56;;;19.97;41.28
26563;BME280;14217;50.986;5.826;2024-03-23T12:53:39;100395.41;;;20.00;41.26
26563;BME280;14217;50.986;5.826;2024-03-23T12:58:39;100385.38;;;20.05;41.22
26563;BME280;14217;50.986;5.826;2024-03-23T13:03:40;100375.66;;;20.04;41.15
26563;BME280;14217;50.986;5.826;2024-03-23T13:08:44;100369.41;;;20.05;41.45
26563;BME280;14217;50.986;5.826;2024-03-23T13:13:45;100359.81;;;20.03;41.36
26563;BME280;14217;50.986;5.826;2024-03-23T13:18:45;100356.41;;;20.01;41.42
26563;BME280;14217;50.986;5.826;2024-03-23T13:23:47;100342.22;;;20.00;41.47
26563;BME280;14217;50.986;5.826;2024-03-23T13:28:48;100342.06;;;20.03;41.20
26563;BME280;14217;50.986;5.826;2024-03-23T13:33:49;100350.97;;;20.02;41.51
26563;BME280;14217;50.986;5.826;2024-03-23T13:38:50;100352.09;;;19.98;41.56
26563;BME280;14217;50.986;5.826;2024-03-23T13:43:51;100356.19;;;20.04;41.18
26563;BME280;14217;50.986;5.826;2024-03-23T13:48:52;100348.13;;;20.05;41.20
26563;BME280;14217;50.986;5.826;2024-03-23T13:53:56;100352.50;;;20.06;41.14
26563;BME280;14217;50.986;5.826;2024-03-23T13:58:57;100359.84;;;19.87;41.08
26563;BME280;14217;50.986;5.826;2024-03-23T14:03:58;100377.06;;;19.96;41.22
26563;BME280;14217;50.986;5.826;2024-03-23T14:08:59;100407.78;;;20.01;41.12
26563;BME280;14217;50.986;5.826;2024-03-23T14:14:00;100385.66;;;20.01;41.32
26563;BME280;14217;50.986;5.826;2024-03-23T14:19:00;100368.66;;;20.03;41.35
26563;BME280;14217;50.986;5.826;2024-03-23T14:24:01;100350.88;;;20.04;41.07
26563;BME280;14217;50.986;5.826;2024-03-23T14:29:03;100347.19;;;20.06;41.10
26563;BME280;14217;50.986;5.826;2024-03-23T14:34:04;100342.81;;;20.05;41.20
26563;BME280;14217;50.986;5.826;2024-03-23T14:39:05;100329.53;;;20.05;41.12
26563;BME280;14217;50.986;5.826;2024-03-23T14:44:07;100331.50;;;20.02;41.38
26563;BME280;14217;50.986;5.826;2024-03-23T14:49:07;100350.13;;;20.02;41.14
26563;BME280;14217;50.986;5.826;2024-03-23T14:54:08;100342.41;;;19.97;41.53
26563;BME280;14217;50.986;5.826;2024-03-23T14:59:09;100322.25;;;19.93;41.80
26563;BME280;14217;50.986;5.826;2024-03-23T15:04:10;100344.84;;;19.86;41.53
26563;BME280;14217;50.986;5.826;2024-03-23T15:09:10;100375.38;;;19.79;41.74
26563;BME280;14217;50.986;5.826;2024-03-23T15:14:11;100347.94;;;19.78;41.83
26563;BME280;14217;50.986;5.826;2024-03-23T15:19:12;100336.88;;;19.86;41.83
26563;BME280;14217;50.986;5.826;2024-03-23T15:24:13;100320.13;;;19.68;41.86
26563;BME280;14217;50.986;5.826;2024-03-23T15:29:13;100312.19;;;19.52;42.56
26563;BME280;14217;50.986;5.826;2024-03-23T15:34:17;100301.81;;;19.47;42.45
26563;BME280;14217;50.986;5.826;2024-03-23T15:39:20;100286.91;;;19.45;42.96
26563;BME280;14217;50.986;5.826;2024-03-23T15:44:22;100288.09;;;19.39;43.16
26563;BME280;14217;50.986;5.826;2024-03-23T15:49:23;100282.91;;;19.38;43.07
26563;BME280;14217;50.986;5.826;2024-03-23T15:54:23;100288.56;;;19.32;43.23
26563;BME280;14217;50.986;5.826;2024-03-23T15:59:24;100281.19;;;19.37;43.53
26563;BME280;14217;50.986;5.826;2024-03-23T16:04:25;100275.28;;;19.32;43.45
26563;BME280;14217;50.986;5.826;2024-03-23T16:09:26;100273.66;;;19.29;43.77
26563;BME280;14217;50.986;5.826;2024-03-23T16:14:29;100275.28;;;19.32;43.79
26563;BME280;14217;50.986;5.826;2024-03-23T16:19:29;100278.97;;;19.29;43.53
26563;BME280;14217;50.986;5.826;2024-03-23T16:24:30;100262.09;;;19.30;43.83
26563;BME280;14217;50.986;5.826;2024-03-23T16:29:31;100245.38;;;19.44;43.27
26563;BME280;14217;50.986;5.826;2024-03-23T16:34:32;100250.56;;;19.45;42.89
26563;BME280;14217;50.986;5.826;2024-03-23T16:39:32;100246.78;;;19.49;42.62
26563;BME280;14217;50.986;5.826;2024-03-23T16:44:33;100244.75;;;19.55;42.48
26563;BME280;14217;50.986;5.826;2024-03-23T16:49:34;100239.31;;;19.56;42.68
26563;BME280;14217;50.986;5.826;2024-03-23T16:54:35;100235.66;;;19.59;42.45
26563;BME280;14217;50.986;5.826;2024-03-23T16:59:36;100239.91;;;19.61;42.61
26563;BME280;14217;50.986;5.826;2024-03-23T17:04:36;100258.69;;;19.58;42.69
26563;BME280;14217;50.986;5.826;2024-03-23T17:09:46;100244.41;;;19.45;42.96
26563;BME280;14217;50.986;5.826;2024-03-23T17:14:47;100244.69;;;19.40;43.03
26563;BME280;14217;50.986;5.826;2024-03-23T17:19:48;100230.00;;;19.33;43.02
26563;BME280;14217;50.986;5.826;2024-03-23T17:24:52;100228.53;;;19.43;43.21
26563;BME280;14217;50.986;5.826;2024-03-23T17:29:53;100226.00;;;19.42;42.32
26563;BME280;14217;50.986;5.826;2024-03-23T17:34:54;100215.09;;;19.46;41.63
26563;BME280;14217;50.986;5.826;2024-03-23T17:39:55;100220.81;;;19.55;41.80
26563;BME280;14217;50.986;5.826;2024-03-23T17:44:56;100217.97;;;19.58;41.68
26563;BME280;14217;50.986;5.826;2024-03-23T17:49:57;100222.16;;;19.32;39.51
26563;BME280;14217;50.986;5.826;2024-03-23T17:54:57;100228.50;;;19.29;42.44
26563;BME280;14217;50.986;5.826;2024-03-23T17:59:58;100223.50;;;19.39;42.16
26563;BME280;14217;50.986;5.826;2024-03-23T18:04:59;100226.50;;;19.48;41.70
26563;BME280;14217;50.986;5.826;2024-03-23T18:10:05;100228.31;;;19.48;41.50
26563;BME280;14217;50.986;5.826;2024-03-23T18:15:07;100223.84;;;19.48;41.39
26563;BME280;14217;50.986;5.826;2024-03-23T18:20:08;100220.22;;;19.49;41.39
26563;BME280;14217;50.986;5.826;2024-03-23T18:25:10;100207.78;;;19.50;41.44
26563;BME280;14217;50.986;5.826;2024-03-23T18:30:11;100200.84;;;19.47;42.06
26563;BME280;14217;50.986;5.826;2024-03-23T18:35:12;100204.13;;;19.53;41.79
26563;BME280;14217;50.986;5.826;2024-03-23T18:40:13;100207.97;;;19.47;41.82
26563;BME280;14217;50.986;5.826;2024-03-23T18:45:13;100202.47;;;19.50;41.90
26563;BME280;14217;50.986;5.826;2024-03-23T18:50:14;100198.97;;;19.49;42.02
26563;BME280;14217;50.986;5.826;2024-03-23T18:55:15;100195.38;;;19.50;42.28
26563;BME280;14217;50.986;5.826;2024-03-23T19:00:16;100190.22;;;19.47;42.26
26563;BME280;14217;50.986;5.826;2024-03-23T19:05:17;100187.28;;;19.52;42.00
26563;BME280;14217;50.986;5.826;2024-03-23T19:10:18;100191.59;;;19.55;41.83
26563;BME280;14217;50.986;5.826;2024-03-23T19:15:22;100192.81;;;19.49;42.01
26563;BME280;14217;50.986;5.826;2024-03-23T19:20:23;100192.88;;;19.47;42.11
26563;BME280;14217;50.986;5.826;2024-03-23T19:25:24;100201.25;;;19.56;41.79
26563;BME280;14217;50.986;5.826;2024-03-23T19:30:25;100214.53;;;19.56;41.91
26563;BME280;14217;50.986;5.826;2024-03-23T19:35:26;100210.31;;;19.67;41.64
26563;BME280;14217;50.986;5.826;2024-03-23T19:40:26;100203.81;;;19.73;41.38
26563;BME280;14217;50.986;5.826;2024-03-23T19:45:27;100206.38;;;19.44;42.13
26563;BME280;14217;50.986;5.826;2024-03-23T19:50:30;100207.22;;;19.45;42.42
26563;BME280;14217;50.986;5.826;2024-03-23T19:55:31;100200.91;;;19.62;41.99
26563;BME280;14217;50.986;5.826;2024-03-23T20:00:33;100201.06;;;19.75;41.62
26563;BME280;14217;50.986;5.826;2024-03-23T20:05:33;100200.22;;;19.74;41.64
26563;BME280;14217;50.986;5.826;2024-03-23T20:10:34;100197.56;;;19.74;41.63
26563;BME280;14217;50.986;5.826;2024-03-23T20:15:35;100194.97;;;19.73;41.61
26563;BME280;14217;50.986;5.826;2024-03-23T20:20:36;100197.34;;;19.77;41.45
26563;BME280;14217;50.986;5.826;2024-03-23T20:25:38;100187.84;;;19.73;41.18
26563;BME280;14217;50.986;5.826;2024-03-23T20:30:38;100194.22;;;19.70;41.10
26563;BME280;14217;50.986;5.826;2024-03-23T20:35:49;100204.03;;;19.68;41.05
26563;BME280;14217;50.986;5.826;2024-03-23T20:40:56;100206.91;;;19.65;41.09
26563;BME280;14217;50.986;5.826;2024-03-23T20:46:00;100210.59;;;19.63;40.91
26563;BME280;14217;50.986;5.826;2024-03-23T20:51:02;100201.88;;;19.61;41.06
26563;BME280;14217;50.986;5.826;2024-03-23T20:56:03;100203.84;;;19.57;40.78
26563;BME280;14217;50.986;5.826;2024-03-23T21:01:06;100198.31;;;19.60;40.64
26563;BME280;14217;50.986;5.826;2024-03-23T21:06:08;100201.25;;;19.56;40.56
26563;BME280;14217;50.986;5.826;2024-03-23T21:11:09;100186.84;;;19.60;40.50
26563;BME280;14217;50.986;5.826;2024-03-23T21:16:10;100179.56;;;19.63;40.37
26563;BME280;14217;50.986;5.826;2024-03-23T21:21:10;100181.25;;;19.64;40.47
26563;BME280;14217;50.986;5.826;2024-03-23T21:26:11;100173.88;;;19.69;40.84
26563;BME280;14217;50.986;5.826;2024-03-23T21:31:12;100174.03;;;19.66;41.08
26563;BME280;14217;50.986;5.826;2024-03-23T21:36:13;100179.88;;;19.73;41.39
26563;BME280;14217;50.986;5.826;2024-03-23T21:41:14;100178.44;;;19.67;41.20
26563;BME280;14217;50.986;5.826;2024-03-23T21:46:14;100173.47;;;19.61;40.95
26563;BME280;14217;50.986;5.826;2024-03-23T21:51:15;100167.41;;;19.59;40.84
26563;BME280;14217;50.986;5.826;2024-03-23T21:56:18;100169.09;;;19.60;40.46
26563;BME280;14217;50.986;5.826;2024-03-23T22:01:19;100161.25;;;19.59;40.38
26563;BME280;14217;50.986;5.826;2024-03-23T22:06:20;100156.09;;;19.56;40.30
26563;BME280;14217;50.986;5.826;2024-03-23T22:11:21;100164.91;;;19.56;40.15
26563;BME280;14217;50.986;5.826;2024-03-23T22:16:22;100164.34;;;19.51;40.18
26563;BME280;14217;50.986;5.826;2024-03-23T22:21:23;100160.91;;;19.49;40.17
26563;BME280;14217;50.986;5.826;2024-03-23T22:26:24;100151.81;;;19.53;39.81
26563;BME280;14217;50.986;5.826;2024-03-23T22:31:24;100151.13;;;19.49;39.93
26563;BME280;14217;50.986;5.826;2024-03-23T22:36:25;100141.00;;;19.56;39.86
26563;BME280;14217;50.986;5.826;2024-03-23T22:41:26;100129.53;;;19.56;40.04
26563;BME280;14217;50.986;5.826;2024-03-23T22:46:27;100121.25;;;19.60;39.78
26563;BME280;14217;50.986;5.826;2024-03-23T22:51:27;100127.63;;;19.58;39.90
26563;BME280;14217;50.986;5.826;2024-03-23T22:56:28;100119.75;;;19.56;39.79
26563;BME280;14217;50.986;5.826;2024-03-23T23:01:29;100125.72;;;19.60;40.01
26563;BME280;14217;50.986;5.826;2024-03-23T23:06:30;100119.56;;;19.59;39.69
26563;BME280;14217;50.986;5.826;2024-03-23T23:11:31;100125.16;;;19.55;40.11
26563;BME280;14217;50.986;5.826;2024-03-23T23:16:32;100111.13;;;19.53;40.13
26563;BME280;14217;50.986;5.826;2024-03-23T23:21:33;100103.91;;;19.55;40.11
26563;BME280;14217;50.986;5.826;2024-03-23T23:26:33;100084.44;;;19.54;40.06
26563;BME280;14217;50.986;5.826;2024-03-23T23:31:34;100086.44;;;19.50;40.02
26563;BME280;14217;50.986;5.826;2024-03-23T23:36:35;100080.00;;;19.55;39.87
26563;BME280;14217;50.986;5.826;2024-03-23T23:41:36;100071.25;;;19.53;39.96
26563;BME280;14217;50.986;5.826;2024-03-23T23:46:37;100072.97;;;19.54;39.90
26563;BME280;14217;50.986;5.826;2024-03-23T23:51:38;100043.94;;;19.50;39.99
26563;BME280;14217;50.986;5.826;2024-03-23T23:56:38;100047.34;;;19.53;39.99
